sensor_id;sensor_type;location;lat;lon;timestamp;P1;durP1;ratioP1;P2;durP2;ratioP2
65535;SDS011;52145;49.342;9.116;2023-04-24T00:00:30;2.97;;;1.30;;
65535;SDS011;52145;49.342;9.116;2023-04-24T00:02:56;3.42;;;1.50;;
65535;SDS011;52145;49.342;9.116;2023-04-24T00:05:22;2.10;;;1.23;;
65535;SDS011;52145;49.342;9.116;2023-04-24T00:07:48;9.65;;;1.42;;
65535;SDS011;52145;49.342;9.116;2023-04-24T00:10:17;2.58;;;1.33;;
65535;SDS011;52145;49.342;9.116;2023-04-24T00:12:43;4.50;;;1.60;;
65535;SDS011;52145;49.342;9.116;2023-04-24T00:15:10;2.03;;;1.15;;
65535;SDS011;52145;49.342;9.116;2023-04-24T00:17:36;3.10;;;1.55;;
65535;SDS011;52145;49.342;9.116;2023-04-24T00:20:02;4.35;;;1.55;;
65535;SDS011;52145;49.342;9.116;2023-04-24T00:22:29;3.45;;;1.67;;
65535;SDS011;52145;49.342;9.116;2023-04-24T00:24:56;4.47;;;1.58;;
65535;SDS011;52145;49.342;9.116;2023-04-24T00:27:22;3.53;;;1.70;;
65535;SDS011;52145;49.342;9.116;2023-04-24T00:29:48;2.03;;;1.25;;
65535;SDS011;52145;49.342;9.116;2023-04-24T00:32:14;3.53;;;1.30;;
65535;SDS011;52145;49.342;9.116;2023-04-24T00:34:40;3.90;;;1.85;;
65535;SDS011;52145;49.342;9.116;2023-04-24T00:37:06;1.92;;;1.45;;
65535;SDS011;52145;49.342;9.116;2023-04-24T00:39:32;2.78;;;1.40;;
65535;SDS011;52145;49.342;9.116;2023-04-24T00:41:58;2.88;;;1.30;;
65535;SDS011;52145;49.342;9.116;2023-04-24T00:44:24;3.97;;;1.50;;
65535;SDS011;52145;49.342;9.116;2023-04-24T00:46:50;5.03;;;1.63;;
65535;SDS011;52145;49.342;9.116;2023-04-24T00:49:19;1.92;;;1.15;;
65535;SDS011;52145;49.342;9.116;2023-04-24T00:51:45;3.20;;;1.23;;
65535;SDS011;52145;49.342;9.116;2023-04-24T00:54:15;6.10;;;1.42;;
65535;SDS011;52145;49.342;9.116;2023-04-24T00:56:41;2.10;;;1.42;;
65535;SDS011;52145;49.342;9.116;2023-04-24T00:59:08;3.40;;;1.33;;
65535;SDS011;52145;49.342;9.116;2023-04-24T01:01:34;2.90;;;1.58;;
65535;SDS011;52145;49.342;9.116;2023-04-24T01:04:00;4.80;;;1.42;;
65535;SDS011;52145;49.342;9.116;2023-04-24T01:06:27;4.47;;;1.17;;
65535;SDS011;52145;49.342;9.116;2023-04-24T01:08:53;1.85;;;1.10;;
65535;SDS011;52145;49.342;9.116;2023-04-24T01:11:20;3.55;;;1.38;;
65535;SDS011;52145;49.342;9.116;2023-04-24T01:13:47;4.57;;;1.27;;
65535;SDS011;52145;49.342;9.116;2023-04-24T01:16:14;2.92;;;1.35;;
65535;SDS011;52145;49.342;9.116;2023-04-24T01:18:42;3.45;;;1.15;;
65535;SDS011;52145;49.342;9.116;2023-04-24T01:21:08;2.35;;;1.20;;
65535;SDS011;52145;49.342;9.116;2023-04-24T01:23:34;4.30;;;1.10;;
65535;SDS011;52145;49.342;9.116;2023-04-24T01:26:00;4.25;;;1.42;;
65535;SDS011;52145;49.342;9.116;2023-04-24T01:28:26;1.67;;;1.05;;
65535;SDS011;52145;49.342;9.116;2023-04-24T01:30:52;3.10;;;1.20;;
65535;SDS011;52145;49.342;9.116;2023-04-24T01:33:20;2.92;;;1.15;;
65535;SDS011;52145;49.342;9.116;2023-04-24T01:35:46;3.83;;;1.05;;
65535;SDS011;52145;49.342;9.116;2023-04-24T01:38:12;2.97;;;1.00;;
65535;SDS011;52145;49.342;9.116;2023-04-24T01:40:38;3.08;;;1.30;;
65535;SDS011;52145;49.342;9.116;2023-04-24T01:43:04;2.85;;;0.85;;
65535;SDS011;52145;49.342;9.116;2023-04-24T01:45:30;1.88;;;0.82;;
65535;SDS011;52145;49.342;9.116;2023-04-24T01:47:56;2.88;;;1.00;;
65535;SDS011;52145;49.342;9.116;2023-04-24T01:50:22;4.05;;;1.00;;
65535;SDS011;52145;49.342;9.116;2023-04-24T01:52:48;4.00;;;1.10;;
65535;SDS011;52145;49.342;9.116;2023-04-24T01:55:14;1.80;;;0.93;;
65535;SDS011;52145;49.342;9.116;2023-04-24T01:57:40;1.77;;;0.90;;
65535;SDS011;52145;49.342;9.116;2023-04-24T02:00:06;2.92;;;1.20;;
65535;SDS011;52145;49.342;9.116;2023-04-24T02:02:33;2.80;;;1.08;;
65535;SDS011;52145;49.342;9.116;2023-04-24T02:04:59;2.00;;;0.90;;
65535;SDS011;52145;49.342;9.116;2023-04-24T02:07:25;2.72;;;1.08;;
65535;SDS011;52145;49.342;9.116;2023-04-24T02:09:51;1.40;;;0.80;;
65535;SDS011;52145;49.342;9.116;2023-04-24T02:12:17;3.90;;;0.88;;
65535;SDS011;52145;49.342;9.116;2023-04-24T02:14:43;4.35;;;0.80;;
65535;SDS011;52145;49.342;9.116;2023-04-24T02:17:09;1.80;;;0.70;;
65535;SDS011;52145;49.342;9.116;2023-04-24T02:19:38;0.77;;;0.70;;
65535;SDS011;52145;49.342;9.116;2023-04-24T02:22:04;4.38;;;0.70;;
65535;SDS011;52145;49.342;9.116;2023-04-24T02:24:30;1.27;;;0.82;;
65535;SDS011;52145;49.342;9.116;2023-04-24T02:26:56;3.42;;;1.23;;
65535;SDS011;52145;49.342;9.116;2023-04-24T02:29:22;4.18;;;1.10;;
65535;SDS011;52145;49.342;9.116;2023-04-24T02:31:48;1.40;;;0.70;;
65535;SDS011;52145;49.342;9.116;2023-04-24T02:34:14;3.50;;;1.48;;
65535;SDS011;52145;49.342;9.116;2023-04-24T02:36:41;3.05;;;1.15;;
65535;SDS011;52145;49.342;9.116;2023-04-24T02:39:07;2.08;;;0.98;;
65535;SDS011;52145;49.342;9.116;2023-04-24T02:41:33;1.52;;;0.70;;
65535;SDS011;52145;49.342;9.116;2023-04-24T02:43:59;5.32;;;2.60;;
65535;SDS011;52145;49.342;9.116;2023-04-24T02:46:25;4.68;;;2.20;;
65535;SDS011;52145;49.342;9.116;2023-04-24T02:48:51;5.05;;;1.70;;
65535;SDS011;52145;49.342;9.116;2023-04-24T02:51:17;6.10;;;2.70;;
65535;SDS011;52145;49.342;9.116;2023-04-24T02:53:43;5.60;;;1.60;;
65535;SDS011;52145;49.342;9.116;2023-04-24T02:56:09;2.30;;;1.10;;
65535;SDS011;52145;49.342;9.116;2023-04-24T02:58:37;3.20;;;1.10;;
65535;SDS011;52145;49.342;9.116;2023-04-24T03:01:03;2.15;;;1.05;;
65535;SDS011;52145;49.342;9.116;2023-04-24T03:03:29;3.05;;;1.00;;
65535;SDS011;52145;49.342;9.116;2023-04-24T03:05:55;2.72;;;1.35;;
65535;SDS011;52145;49.342;9.116;2023-04-24T03:08:22;2.75;;;0.80;;
65535;SDS011;52145;49.342;9.116;2023-04-24T03:10:48;2.92;;;0.70;;
65535;SDS011;52145;49.342;9.116;2023-04-24T03:13:15;1.55;;;0.63;;
65535;SDS011;52145;49.342;9.116;2023-04-24T03:15:41;1.20;;;0.90;;
65535;SDS011;52145;49.342;9.116;2023-04-24T03:18:07;2.55;;;1.15;;
65535;SDS011;52145;49.342;9.116;2023-04-24T03:20:33;3.00;;;0.95;;
65535;SDS011;52145;49.342;9.116;2023-04-24T03:22:59;2.92;;;0.93;;
65535;SDS011;52145;49.342;9.116;2023-04-24T03:25:25;1.88;;;0.70;;
65535;SDS011;52145;49.342;9.116;2023-04-24T03:27:51;2.00;;;1.00;;
65535;SDS011;52145;49.342;9.116;2023-04-24T03:30:17;1.25;;;0.82;;
65535;SDS011;52145;49.342;9.116;2023-04-24T03:32:43;2.05;;;0.80;;
65535;SDS011;52145;49.342;9.116;2023-04-24T03:35:09;0.98;;;0.65;;
65535;SDS011;52145;49.342;9.116;2023-04-24T03:37:35;2.10;;;0.70;;
65535;SDS011;52145;49.342;9.116;2023-04-24T03:40:02;2.33;;;0.85;;
65535;SDS011;52145;49.342;9.116;2023-04-24T03:42:28;2.97;;;0.70;;
65535;SDS011;52145;49.342;9.116;2023-04-24T03:44:54;1.58;;;0.77;;
65535;SDS011;52145;49.342;9.116;2023-04-24T03:47:20;2.75;;;1.02;;
65535;SDS011;52145;49.342;9.116;2023-04-24T03:49:45;2.38;;;0.77;;
65535;SDS011;52145;49.342;9.116;2023-04-24T03:52:11;1.30;;;0.70;;
65535;SDS011;52145;49.342;9.116;2023-04-24T03:54:37;2.13;;;0.80;;
65535;SDS011;52145;49.342;9.116;2023-04-24T03:57:03;0.73;;;0.52;;
65535;SDS011;52145;49.342;9.116;2023-04-24T03:59:30;1.40;;;0.75;;
65535;SDS011;52145;49.342;9.116;2023-04-24T04:01:56;1.70;;;0.70;;
65535;SDS011;52145;49.342;9.116;2023-04-24T04:04:21;1.60;;;0.90;;
65535;SDS011;52145;49.342;9.116;2023-04-24T04:06:47;3.92;;;1.30;;
65535;SDS011;52145;49.342;9.116;2023-04-24T04:09:13;5.90;;;1.30;;
65535;SDS011;52145;49.342;9.116;2023-04-24T04:11:39;4.00;;;1.27;;
65535;SDS011;52145;49.342;9.116;2023-04-24T04:14:05;4.07;;;1.25;;
65535;SDS011;52145;49.342;9.116;2023-04-24T04:16:31;2.38;;;1.20;;
65535;SDS011;52145;49.342;9.116;2023-04-24T04:18:57;2.53;;;1.52;;
65535;SDS011;52145;49.342;9.116;2023-04-24T04:21:24;4.47;;;1.30;;
65535;SDS011;52145;49.342;9.116;2023-04-24T04:23:51;3.65;;;1.50;;
65535;SDS011;52145;49.342;9.116;2023-04-24T04:26:17;5.20;;;1.45;;
65535;SDS011;52145;49.342;9.116;2023-04-24T04:28:44;3.97;;;1.33;;
65535;SDS011;52145;49.342;9.116;2023-04-24T04:31:10;2.50;;;1.48;;
65535;SDS011;52145;49.342;9.116;2023-04-24T04:33:36;2.78;;;1.45;;
65535;SDS011;52145;49.342;9.116;2023-04-24T04:36:03;2.38;;;1.42;;
65535;SDS011;52145;49.342;9.116;2023-04-24T04:38:29;3.55;;;1.38;;
65535;SDS011;52145;49.342;9.116;2023-04-24T04:40:55;2.17;;;1.30;;
65535;SDS011;52145;49.342;9.116;2023-04-24T04:43:22;3.97;;;1.65;;
65535;SDS011;52145;49.342;9.116;2023-04-24T04:45:48;2.17;;;1.48;;
65535;SDS011;52145;49.342;9.116;2023-04-24T04:48:16;5.25;;;1.50;;
65535;SDS011;52145;49.342;9.116;2023-04-24T04:50:43;5.90;;;1.70;;
65535;SDS011;52145;49.342;9.116;2023-04-24T04:53:09;2.58;;;1.52;;
65535;SDS011;52145;49.342;9.116;2023-04-24T04:55:35;5.53;;;1.75;;
65535;SDS011;52145;49.342;9.116;2023-04-24T04:58:01;4.60;;;1.63;;
65535;SDS011;52145;49.342;9.116;2023-04-24T05:00:27;7.50;;;1.90;;
65535;SDS011;52145;49.342;9.116;2023-04-24T05:02:58;4.53;;;1.98;;
65535;SDS011;52145;49.342;9.116;2023-04-24T05:05:24;3.65;;;2.05;;
65535;SDS011;52145;49.342;9.116;2023-04-24T05:07:50;3.30;;;1.90;;
65535;SDS011;52145;49.342;9.116;2023-04-24T05:10:16;2.50;;;1.67;;
65535;SDS011;52145;49.342;9.116;2023-04-24T05:12:42;4.28;;;2.40;;
65535;SDS011;52145;49.342;9.116;2023-04-24T05:15:08;3.13;;;2.10;;
65535;SDS011;52145;49.342;9.116;2023-04-24T05:17:34;5.15;;;2.15;;
65535;SDS011;52145;49.342;9.116;2023-04-24T05:20:00;6.55;;;2.80;;
65535;SDS011;52145;49.342;9.116;2023-04-24T05:22:27;4.57;;;2.20;;
65535;SDS011;52145;49.342;9.116;2023-04-24T05:24:53;3.10;;;2.05;;
65535;SDS011;52145;49.342;9.116;2023-04-24T05:27:19;3.75;;;2.20;;
65535;SDS011;52145;49.342;9.116;2023-04-24T05:29:45;4.45;;;2.22;;
65535;SDS011;52145;49.342;9.116;2023-04-24T05:32:11;8.25;;;2.00;;
65535;SDS011;52145;49.342;9.116;2023-04-24T05:34:37;3.83;;;1.92;;
65535;SDS011;52145;49.342;9.116;2023-04-24T05:37:03;5.20;;;2.10;;
65535;SDS011;52145;49.342;9.116;2023-04-24T05:39:33;4.70;;;2.25;;
65535;SDS011;52145;49.342;9.116;2023-04-24T05:41:59;4.43;;;2.20;;
65535;SDS011;52145;49.342;9.116;2023-04-24T05:44:26;4.80;;;2.30;;
65535;SDS011;52145;49.342;9.116;2023-04-24T05:46:52;3.90;;;2.25;;
65535;SDS011;52145;49.342;9.116;2023-04-24T05:49:20;2.53;;;2.10;;
65535;SDS011;52145;49.342;9.116;2023-04-24T05:51:46;4.38;;;2.20;;
65535;SDS011;52145;49.342;9.116;2023-04-24T05:54:12;3.75;;;2.00;;
65535;SDS011;52145;49.342;9.116;2023-04-24T05:56:38;4.65;;;2.25;;
65535;SDS011;52145;49.342;9.116;2023-04-24T05:59:04;5.68;;;2.88;;
65535;SDS011;52145;49.342;9.116;2023-04-24T06:01:30;6.82;;;2.72;;
65535;SDS011;52145;49.342;9.116;2023-04-24T06:03:56;4.57;;;2.60;;
65535;SDS011;52145;49.342;9.116;2023-04-24T06:06:23;3.70;;;2.40;;
65535;SDS011;52145;49.342;9.116;2023-04-24T06:08:49;3.75;;;2.47;;
65535;SDS011;52145;49.342;9.116;2023-04-24T06:11:15;5.43;;;2.80;;
65535;SDS011;52145;49.342;9.116;2023-04-24T06:13:41;4.85;;;2.45;;
65535;SDS011;52145;49.342;9.116;2023-04-24T06:16:07;3.78;;;2.67;;
65535;SDS011;52145;49.342;9.116;2023-04-24T06:18:33;5.10;;;2.92;;
65535;SDS011;52145;49.342;9.116;2023-04-24T06:20:59;3.70;;;2.42;;
65535;SDS011;52145;49.342;9.116;2023-04-24T06:23:25;5.90;;;2.72;;
65535;SDS011;52145;49.342;9.116;2023-04-24T06:25:51;5.30;;;2.70;;
65535;SDS011;52145;49.342;9.116;2023-04-24T06:28:17;3.80;;;2.55;;
65535;SDS011;52145;49.342;9.116;2023-04-24T06:30:43;5.93;;;2.92;;
65535;SDS011;52145;49.342;9.116;2023-04-24T06:33:09;4.53;;;2.67;;
65535;SDS011;52145;49.342;9.116;2023-04-24T06:35:36;3.78;;;2.38;;
65535;SDS011;52145;49.342;9.116;2023-04-24T06:38:03;4.55;;;2.90;;
65535;SDS011;52145;49.342;9.116;2023-04-24T06:40:29;5.68;;;2.60;;
65535;SDS011;52145;49.342;9.116;2023-04-24T06:42:55;3.25;;;2.20;;
65535;SDS011;52145;49.342;9.116;2023-04-24T06:45:22;17.70;;;3.78;;
65535;SDS011;52145;49.342;9.116;2023-04-24T06:47:48;4.18;;;2.55;;
65535;SDS011;52145;49.342;9.116;2023-04-24T06:50:15;6.30;;;2.40;;
65535;SDS011;52145;49.342;9.116;2023-04-24T06:52:40;7.30;;;2.85;;
65535;SDS011;52145;49.342;9.116;2023-04-24T06:55:08;5.13;;;2.53;;
65535;SDS011;52145;49.342;9.116;2023-04-24T06:57:34;5.35;;;2.47;;
65535;SDS011;52145;49.342;9.116;2023-04-24T07:00:00;4.70;;;2.70;;
65535;SDS011;52145;49.342;9.116;2023-04-24T07:02:26;4.05;;;2.13;;
65535;SDS011;52145;49.342;9.116;2023-04-24T07:04:51;5.70;;;2.80;;
65535;SDS011;52145;49.342;9.116;2023-04-24T07:07:17;5.90;;;2.90;;
65535;SDS011;52145;49.342;9.116;2023-04-24T07:09:43;3.88;;;2.42;;
65535;SDS011;52145;49.342;9.116;2023-04-24T07:12:10;3.35;;;2.53;;
65535;SDS011;52145;49.342;9.116;2023-04-24T07:14:37;3.80;;;2.30;;
65535;SDS011;52145;49.342;9.116;2023-04-24T07:17:03;6.00;;;2.70;;
65535;SDS011;52145;49.342;9.116;2023-04-24T07:19:29;3.80;;;2.55;;
65535;SDS011;52145;49.342;9.116;2023-04-24T07:21:55;4.25;;;2.80;;
65535;SDS011;52145;49.342;9.116;2023-04-24T07:24:23;5.15;;;2.72;;
65535;SDS011;52145;49.342;9.116;2023-04-24T07:26:49;6.13;;;2.70;;
65535;SDS011;52145;49.342;9.116;2023-04-24T07:29:16;3.28;;;2.13;;
65535;SDS011;52145;49.342;9.116;2023-04-24T07:31:42;4.13;;;2.08;;
65535;SDS011;52145;49.342;9.116;2023-04-24T07:34:08;5.82;;;2.15;;
65535;SDS011;52145;49.342;9.116;2023-04-24T07:36:34;4.35;;;2.03;;
65535;SDS011;52145;49.342;9.116;2023-04-24T07:39:00;4.75;;;1.92;;
65535;SDS011;52145;49.342;9.116;2023-04-24T07:41:26;6.85;;;3.05;;
65535;SDS011;52145;49.342;9.116;2023-04-24T07:43:53;4.25;;;2.30;;
65535;SDS011;52145;49.342;9.116;2023-04-24T07:46:19;5.07;;;2.10;;
65535;SDS011;52145;49.342;9.116;2023-04-24T07:48:45;4.25;;;1.80;;
65535;SDS011;52145;49.342;9.116;2023-04-24T07:51:14;6.18;;;2.88;;
65535;SDS011;52145;49.342;9.116;2023-04-24T07:53:40;2.85;;;1.55;;
65535;SDS011;52145;49.342;9.116;2023-04-24T07:56:07;3.67;;;1.77;;
65535;SDS011;52145;49.342;9.116;2023-04-24T07:58:33;5.28;;;2.42;;
65535;SDS011;52145;49.342;9.116;2023-04-24T08:00:59;3.80;;;1.80;;
65535;SDS011;52145;49.342;9.116;2023-04-24T08:03:25;2.33;;;1.45;;
65535;SDS011;52145;49.342;9.116;2023-04-24T08:05:51;3.15;;;1.30;;
65535;SDS011;52145;49.342;9.116;2023-04-24T08:08:17;2.35;;;1.65;;
65535;SDS011;52145;49.342;9.116;2023-04-24T08:10:43;2.97;;;1.48;;
65535;SDS011;52145;49.342;9.116;2023-04-24T08:13:08;2.65;;;1.60;;
65535;SDS011;52145;49.342;9.116;2023-04-24T08:15:36;2.78;;;1.20;;
65535;SDS011;52145;49.342;9.116;2023-04-24T08:18:02;2.17;;;1.13;;
65535;SDS011;52145;49.342;9.116;2023-04-24T08:20:28;4.85;;;2.15;;
65535;SDS011;52145;49.342;9.116;2023-04-24T08:22:54;3.45;;;1.38;;
65535;SDS011;52145;49.342;9.116;2023-04-24T08:25:21;3.30;;;1.65;;
65535;SDS011;52145;49.342;9.116;2023-04-24T08:27:48;3.50;;;1.65;;
65535;SDS011;52145;49.342;9.116;2023-04-24T08:30:14;4.78;;;2.60;;
65535;SDS011;52145;49.342;9.116;2023-04-24T08:32:40;5.75;;;2.03;;
65535;SDS011;52145;49.342;9.116;2023-04-24T08:35:06;3.33;;;1.42;;
65535;SDS011;52145;49.342;9.116;2023-04-24T08:37:34;4.25;;;1.75;;
65535;SDS011;52145;49.342;9.116;2023-04-24T08:40:00;3.53;;;1.83;;
65535;SDS011;52145;49.342;9.116;2023-04-24T08:42:26;3.28;;;1.30;;
65535;SDS011;52145;49.342;9.116;2023-04-24T08:44:54;2.40;;;1.50;;
65535;SDS011;52145;49.342;9.116;2023-04-24T08:47:20;2.78;;;1.33;;
65535;SDS011;52145;49.342;9.116;2023-04-24T08:49:46;1.95;;;1.38;;
65535;SDS011;52145;49.342;9.116;2023-04-24T08:52:13;7.05;;;1.30;;
65535;SDS011;52145;49.342;9.116;2023-04-24T08:54:39;1.90;;;1.40;;
65535;SDS011;52145;49.342;9.116;2023-04-24T08:57:08;1.77;;;1.30;;
65535;SDS011;52145;49.342;9.116;2023-04-24T08:59:36;2.70;;;1.40;;
65535;SDS011;52145;49.342;9.116;2023-04-24T09:02:02;2.78;;;1.42;;
65535;SDS011;52145;49.342;9.116;2023-04-24T09:04:29;2.70;;;1.40;;
65535;SDS011;52145;49.342;9.116;2023-04-24T09:06:56;2.25;;;1.40;;
65535;SDS011;52145;49.342;9.116;2023-04-24T09:09:23;3.28;;;1.40;;
65535;SDS011;52145;49.342;9.116;2023-04-24T09:11:49;2.83;;;1.75;;
65535;SDS011;52145;49.342;9.116;2023-04-24T09:14:16;1.60;;;1.17;;
65535;SDS011;52145;49.342;9.116;2023-04-24T09:16:42;5.18;;;1.60;;
65535;SDS011;52145;49.342;9.116;2023-04-24T09:19:08;8.05;;;1.75;;
65535;SDS011;52145;49.342;9.116;2023-04-24T09:21:34;2.42;;;1.67;;
65535;SDS011;52145;49.342;9.116;2023-04-24T09:24:02;2.95;;;1.75;;
65535;SDS011;52145;49.342;9.116;2023-04-24T09:26:31;2.80;;;1.40;;
65535;SDS011;52145;49.342;9.116;2023-04-24T09:28:57;1.85;;;1.33;;
65535;SDS011;52145;49.342;9.116;2023-04-24T09:31:23;3.10;;;1.70;;
65535;SDS011;52145;49.342;9.116;2023-04-24T09:33:59;2.80;;;1.55;;
65535;SDS011;52145;49.342;9.116;2023-04-24T09:38:58;2.90;;;1.80;;
65535;SDS011;52145;49.342;9.116;2023-04-24T09:41:24;4.10;;;1.55;;
65535;SDS011;52145;49.342;9.116;2023-04-24T09:43:50;3.90;;;1.70;;
65535;SDS011;52145;49.342;9.116;2023-04-24T09:46:19;3.17;;;1.27;;
65535;SDS011;52145;49.342;9.116;2023-04-24T09:48:46;6.35;;;1.77;;
65535;SDS011;52145;49.342;9.116;2023-04-24T09:51:12;2.10;;;1.25;;
65535;SDS011;52145;49.342;9.116;2023-04-24T09:53:40;4.65;;;1.60;;
65535;SDS011;52145;49.342;9.116;2023-04-24T09:56:10;2.92;;;1.40;;
65535;SDS011;52145;49.342;9.116;2023-04-24T09:58:40;3.13;;;1.60;;
65535;SDS011;52145;49.342;9.116;2023-04-24T10:01:06;3.47;;;1.60;;
65535;SDS011;52145;49.342;9.116;2023-04-24T10:03:32;3.17;;;1.38;;
65535;SDS011;52145;49.342;9.116;2023-04-24T10:05:59;3.58;;;1.42;;
65535;SDS011;52145;49.342;9.116;2023-04-24T10:08:25;2.00;;;1.40;;
65535;SDS011;52145;49.342;9.116;2023-04-24T10:10:52;2.17;;;1.10;;
65535;SDS011;52145;49.342;9.116;2023-04-24T10:13:18;3.67;;;1.20;;
65535;SDS011;52145;49.342;9.116;2023-04-24T10:15:44;3.58;;;1.48;;
65535;SDS011;52145;49.342;9.116;2023-04-24T10:18:10;2.70;;;1.35;;
65535;SDS011;52145;49.342;9.116;2023-04-24T10:20:38;1.50;;;1.20;;
65535;SDS011;52145;49.342;9.116;2023-04-24T10:23:04;5.03;;;1.23;;
65535;SDS011;52145;49.342;9.116;2023-04-24T10:25:31;2.05;;;1.33;;
65535;SDS011;52145;49.342;9.116;2023-04-24T10:27:58;4.22;;;1.88;;
65535;SDS011;52145;49.342;9.116;2023-04-24T10:30:25;3.20;;;1.48;;
65535;SDS011;52145;49.342;9.116;2023-04-24T10:32:51;3.00;;;1.63;;
65535;SDS011;52145;49.342;9.116;2023-04-24T10:35:17;5.25;;;1.70;;
65535;SDS011;52145;49.342;9.116;2023-04-24T10:37:53;4.65;;;1.67;;
65535;SDS011;52145;49.342;9.116;2023-04-24T10:40:25;2.50;;;1.65;;
65535;SDS011;52145;49.342;9.116;2023-04-24T10:42:51;2.85;;;1.50;;
65535;SDS011;52145;49.342;9.116;2023-04-24T10:45:21;2.10;;;1.65;;
65535;SDS011;52145;49.342;9.116;2023-04-24T10:48:01;3.53;;;2.10;;
65535;SDS011;52145;49.342;9.116;2023-04-24T10:50:27;2.40;;;1.65;;
65535;SDS011;52145;49.342;9.116;2023-04-24T10:52:55;2.92;;;2.10;;
65535;SDS011;52145;49.342;9.116;2023-04-24T10:55:39;2.65;;;1.80;;
65535;SDS011;52145;49.342;9.116;2023-04-24T10:58:06;3.65;;;1.83;;
65535;SDS011;52145;49.342;9.116;2023-04-24T11:00:32;4.95;;;2.10;;
65535;SDS011;52145;49.342;9.116;2023-04-24T11:02:58;3.50;;;1.77;;
65535;SDS011;52145;49.342;9.116;2023-04-24T11:05:48;3.72;;;1.90;;
65535;SDS011;52145;49.342;9.116;2023-04-24T11:08:14;2.80;;;1.90;;
65535;SDS011;52145;49.342;9.116;2023-04-24T11:10:44;3.47;;;1.80;;
65535;SDS011;52145;49.342;9.116;2023-04-24T11:13:10;3.92;;;2.00;;
65535;SDS011;52145;49.342;9.116;2023-04-24T11:15:36;2.50;;;1.60;;
65535;SDS011;52145;49.342;9.116;2023-04-24T11:18:02;2.17;;;1.63;;
65535;SDS011;52145;49.342;9.116;2023-04-24T11:20:28;4.25;;;2.28;;
65535;SDS011;52145;49.342;9.116;2023-04-24T11:22:54;3.55;;;2.00;;
65535;SDS011;52145;49.342;9.116;2023-04-24T11:25:22;4.55;;;2.53;;
65535;SDS011;52145;49.342;9.116;2023-04-24T11:27:49;6.35;;;2.85;;
65535;SDS011;52145;49.342;9.116;2023-04-24T11:30:20;4.85;;;2.83;;
65535;SDS011;52145;49.342;9.116;2023-04-24T11:32:50;4.70;;;2.58;;
65535;SDS011;52145;49.342;9.116;2023-04-24T11:35:17;4.35;;;2.20;;
65535;SDS011;52145;49.342;9.116;2023-04-24T11:37:44;4.20;;;2.22;;
65535;SDS011;52145;49.342;9.116;2023-04-24T11:40:11;4.30;;;2.63;;
65535;SDS011;52145;49.342;9.116;2023-04-24T11:42:38;2.60;;;2.10;;
65535;SDS011;52145;49.342;9.116;2023-04-24T11:45:23;4.10;;;2.30;;
65535;SDS011;52145;49.342;9.116;2023-04-24T11:47:50;4.70;;;2.30;;
65535;SDS011;52145;49.342;9.116;2023-04-24T11:50:21;3.65;;;1.90;;
65535;SDS011;52145;49.342;9.116;2023-04-24T11:53:31;4.45;;;2.22;;
65535;SDS011;52145;49.342;9.116;2023-04-24T11:56:02;3.53;;;2.03;;
65535;SDS011;52145;49.342;9.116;2023-04-24T11:58:27;4.07;;;2.83;;
65535;SDS011;52145;49.342;9.116;2023-04-24T12:00:57;3.92;;;2.40;;
65535;SDS011;52145;49.342;9.116;2023-04-24T12:03:23;4.97;;;2.17;;
65535;SDS011;52145;49.342;9.116;2023-04-24T12:05:49;3.53;;;2.30;;
65535;SDS011;52145;49.342;9.116;2023-04-24T12:08:27;5.68;;;2.65;;
65535;SDS011;52145;49.342;9.116;2023-04-24T12:10:53;3.92;;;2.13;;
65535;SDS011;52145;49.342;9.116;2023-04-24T12:13:19;4.53;;;2.30;;
65535;SDS011;52145;49.342;9.116;2023-04-24T12:15:45;5.28;;;2.72;;
65535;SDS011;52145;49.342;9.116;2023-04-24T12:18:12;3.47;;;2.40;;
65535;SDS011;52145;49.342;9.116;2023-04-24T12:20:40;3.70;;;2.17;;
65535;SDS011;52145;49.342;9.116;2023-04-24T12:23:06;3.58;;;2.17;;
65535;SDS011;52145;49.342;9.116;2023-04-24T12:25:32;6.95;;;2.45;;
65535;SDS011;52145;49.342;9.116;2023-04-24T12:30:33;3.67;;;2.50;;
65535;SDS011;52145;49.342;9.116;2023-04-24T12:33:00;2.58;;;1.88;;
65535;SDS011;52145;49.342;9.116;2023-04-24T12:35:30;3.85;;;2.00;;
65535;SDS011;52145;49.342;9.116;2023-04-24T12:38:05;4.85;;;2.38;;
65535;SDS011;52145;49.342;9.116;2023-04-24T12:40:31;3.50;;;2.10;;
65535;SDS011;52145;49.342;9.116;2023-04-24T12:42:57;3.88;;;2.30;;
65535;SDS011;52145;49.342;9.116;2023-04-24T12:45:23;6.45;;;2.42;;
65535;SDS011;52145;49.342;9.116;2023-04-24T12:47:50;4.43;;;1.90;;
65535;SDS011;52145;49.342;9.116;2023-04-24T12:50:16;6.25;;;2.22;;
65535;SDS011;52145;49.342;9.116;2023-04-24T12:52:42;5.00;;;2.20;;
65535;SDS011;52145;49.342;9.116;2023-04-24T12:55:08;5.25;;;2.65;;
65535;SDS011;52145;49.342;9.116;2023-04-24T12:57:35;8.60;;;3.25;;
65535;SDS011;52145;49.342;9.116;2023-04-24T13:00:02;5.22;;;2.45;;
65535;SDS011;52145;49.342;9.116;2023-04-24T13:02:29;3.85;;;2.35;;
65535;SDS011;52145;49.342;9.116;2023-04-24T13:04:56;4.43;;;2.60;;
65535;SDS011;52145;49.342;9.116;2023-04-24T13:07:22;3.85;;;2.35;;
65535;SDS011;52145;49.342;9.116;2023-04-24T13:09:48;4.35;;;2.35;;
65535;SDS011;52145;49.342;9.116;2023-04-24T13:12:14;4.65;;;2.20;;
65535;SDS011;52145;49.342;9.116;2023-04-24T13:14:40;4.75;;;2.15;;
65535;SDS011;52145;49.342;9.116;2023-04-24T13:17:06;3.97;;;2.40;;
65535;SDS011;52145;49.342;9.116;2023-04-24T13:19:37;5.68;;;2.50;;
65535;SDS011;52145;49.342;9.116;2023-04-24T13:22:03;3.33;;;2.15;;
65535;SDS011;52145;49.342;9.116;2023-04-24T13:24:29;4.15;;;2.55;;
65535;SDS011;52145;49.342;9.116;2023-04-24T13:26:56;4.65;;;2.30;;
65535;SDS011;52145;49.342;9.116;2023-04-24T13:29:22;3.45;;;1.88;;
65535;SDS011;52145;49.342;9.116;2023-04-24T13:31:51;3.83;;;2.30;;
65535;SDS011;52145;49.342;9.116;2023-04-24T13:34:19;2.85;;;1.90;;
65535;SDS011;52145;49.342;9.116;2023-04-24T13:36:45;5.03;;;2.25;;
65535;SDS011;52145;49.342;9.116;2023-04-24T13:39:11;2.90;;;1.85;;
65535;SDS011;52145;49.342;9.116;2023-04-24T13:41:38;6.45;;;2.22;;
65535;SDS011;52145;49.342;9.116;2023-04-24T13:44:04;4.60;;;1.95;;
65535;SDS011;52145;49.342;9.116;2023-04-24T13:46:30;5.13;;;2.05;;
65535;SDS011;52145;49.342;9.116;2023-04-24T13:48:56;5.85;;;2.28;;
65535;SDS011;52145;49.342;9.116;2023-04-24T13:51:22;3.70;;;2.20;;
65535;SDS011;52145;49.342;9.116;2023-04-24T13:53:48;3.38;;;2.40;;
65535;SDS011;52145;49.342;9.116;2023-04-24T13:56:14;4.05;;;2.40;;
65535;SDS011;52145;49.342;9.116;2023-04-24T13:58:40;3.25;;;2.10;;
65535;SDS011;52145;49.342;9.116;2023-04-24T14:01:06;4.20;;;2.00;;
65535;SDS011;52145;49.342;9.116;2023-04-24T14:03:33;5.65;;;2.65;;
65535;SDS011;52145;49.342;9.116;2023-04-24T14:05:59;3.45;;;2.35;;
65535;SDS011;52145;49.342;9.116;2023-04-24T14:08:25;6.00;;;2.20;;
65535;SDS011;52145;49.342;9.116;2023-04-24T14:10:51;4.32;;;2.00;;
65535;SDS011;52145;49.342;9.116;2023-04-24T14:13:17;4.95;;;2.40;;
65535;SDS011;52145;49.342;9.116;2023-04-24T14:15:43;5.88;;;2.50;;
65535;SDS011;52145;49.342;9.116;2023-04-24T14:18:09;8.45;;;2.78;;
65535;SDS011;52145;49.342;9.116;2023-04-24T14:20:35;5.55;;;2.22;;
65535;SDS011;52145;49.342;9.116;2023-04-24T14:23:01;4.85;;;2.55;;
65535;SDS011;52145;49.342;9.116;2023-04-24T14:25:27;4.40;;;2.25;;
65535;SDS011;52145;49.342;9.116;2023-04-24T14:27:53;4.65;;;2.47;;
65535;SDS011;52145;49.342;9.116;2023-04-24T14:30:19;3.13;;;2.00;;
65535;SDS011;52145;49.342;9.116;2023-04-24T14:32:45;7.13;;;2.20;;
65535;SDS011;52145;49.342;9.116;2023-04-24T14:35:11;3.85;;;2.53;;
65535;SDS011;52145;49.342;9.116;2023-04-24T14:37:38;5.47;;;2.38;;
65535;SDS011;52145;49.342;9.116;2023-04-24T14:40:06;5.07;;;2.38;;
65535;SDS011;52145;49.342;9.116;2023-04-24T14:42:32;6.22;;;2.15;;
65535;SDS011;52145;49.342;9.116;2023-04-24T14:44:58;3.67;;;2.42;;
65535;SDS011;52145;49.342;9.116;2023-04-24T14:47:24;4.15;;;2.25;;
65535;SDS011;52145;49.342;9.116;2023-04-24T14:49:51;5.88;;;2.17;;